Time;durP1;ratioP1;P1;durP2;ratioP2;P2;SDS_P1;SDS_P2;PMS_P1;PMS_P2;Temp;Humidity;BMP_temperature;BMP_pressure;BME280_temperature;BME280_humidity;BME280_pressure;Samples;Min_cycle;Max_cycle;Signal;HPM_P1;HPM_P2
2024/02/03 00:00:01;;;;;;;39.93;15.93;;;;;;;;;;5127849;28;20032;-61
2024/02/03 00:02:29;;;;;;;41.87;15.40;;;;;;;;;;5106996;28;20292;-62
2024/02/03 00:04:54;;;;;;;29.13;14.93;;;;;;;;;;5101710;28;20276;-60
2024/02/03 00:07:20;;;;;;;35.40;16.10;;;;;;;;;;5111979;28;20020;-61
2024/02/03 00:09:47;;;;;;;29.80;14.70;;;;;;;;;;5128859;28;20300;-63
2024/02/03 00:12:13;;;;;;;37.23;15.37;;;;;;;;;;5115910;28;20257;-61
2024/02/03 00:14:39;;;;;;;36.47;15.30;;;;;;;;;;5109881;28;20288;-62
2024/02/03 00:17:04;;;;;;;29.87;14.73;;;;;;;;;;5106660;28;20032;-61
2024/02/03 00:19:30;;;;;;;31.98;14.77;;;;;;;;;;5120022;28;20040;-61
2024/02/03 00:21:56;;;;;;;33.42;15.45;;;;;;;;;;5110983;28;20060;-61
2024/02/03 00:24:21;;;;;;;33.45;14.60;;;;;;;;;;5122691;28;20036;-61
2024/02/03 00:26:47;;;;;;;33.03;15.80;;;;;;;;;;5105265;28;20032;-60
2024/02/03 00:29:12;;;;;;;27.63;12.65;;;;;;;;;;5122871;28;20040;-60
2024/02/03 00:31:38;;;;;;;32.03;13.53;;;;;;;;;;5115059;28;20028;-60
2024/02/03 00:34:03;;;;;;;30.77;13.38;;;;;;;;;;5132193;28;20028;-60
2024/02/03 00:36:29;;;;;;;29.40;13.67;;;;;;;;;;5119811;28;20036;-61
2024/02/03 00:38:54;;;;;;;32.83;14.43;;;;;;;;;;5120128;28;20028;-61
2024/02/03 00:41:19;;;;;;;28.00;13.13;;;;;;;;;;5101492;28;20025;-60
2024/02/03 00:43:44;;;;;;;29.60;13.37;;;;;;;;;;5109831;28;20024;-61
2024/02/03 00:46:11;;;;;;;27.33;12.27;;;;;;;;;;5108583;28;20487;-61
2024/02/03 00:48:36;;;;;;;;;;;;;;;;;;5110963;28;20104;-62
2024/02/03 00:51:01;;;;;;;25.33;11.27;;;;;;;;;;5115524;28;19912;-61
2024/02/03 00:53:28;;;;;;;21.60;10.47;;;;;;;;;;5112766;28;20032;-61
2024/02/03 00:55:54;;;;;;;22.83;11.07;;;;;;;;;;5110869;28;20298;-62
2024/02/03 00:58:20;;;;;;;34.60;13.13;;;;;;;;;;5111216;28;20028;-58
2024/02/03 01:00:45;;;;;;;26.23;11.02;;;;;;;;;;5111009;28;20032;-61
2024/02/03 01:03:11;;;;;;;27.35;11.30;;;;;;;;;;5111265;28;20043;-60
2024/02/03 01:05:37;;;;;;;23.77;10.50;;;;;;;;;;5112213;28;20034;-61
2024/02/03 01:08:03;;;;;;;19.80;9.40;;;;;;;;;;5113648;28;20091;-60
2024/02/03 01:10:28;;;;;;;19.90;10.20;;;;;;;;;;5110705;28;20042;-62
2024/02/03 01:12:54;;;;;;;21.13;9.95;;;;;;;;;;5111618;28;20035;-61
2024/02/03 01:15:20;;;;;;;19.42;9.00;;;;;;;;;;5107616;28;20036;-61
2024/02/03 01:17:45;;;;;;;21.60;10.67;;;;;;;;;;5117051;28;20066;-61
2024/02/03 01:20:11;;;;;;;21.70;9.53;;;;;;;;;;5109921;28;20272;-61
2024/02/03 01:22:36;;;;;;;17.80;9.80;;;;;;;;;;5116890;28;20263;-61
2024/02/03 01:25:02;;;;;;;24.57;11.03;;;;;;;;;;5119484;28;20039;-61
2024/02/03 01:27:27;;;;;;;20.67;8.45;;;;;;;;;;5115924;28;20032;-60
2024/02/03 01:29:53;;;;;;;24.50;9.53;;;;;;;;;;5123833;28;20095;-61
2024/02/03 01:32:19;;;;;;;;;;;;;;;;;;5119539;28;20020;-61
2024/02/03 01:34:45;;;;;;;17.27;8.07;;;;;;;;;;5129951;28;19976;-58
2024/02/03 01:37:10;;;;;;;17.13;7.87;;;;;;;;;;5103849;28;20031;-60
2024/02/03 01:39:36;;;;;;;17.23;7.78;;;;;;;;;;5109900;28;20769;-61
2024/02/03 01:42:01;;;;;;;16.67;7.43;;;;;;;;;;5114869;28;20036;-61
2024/02/03 01:44:29;;;;;;;19.35;9.25;;;;;;;;;;5128990;28;20031;-60
2024/02/03 01:46:55;;;;;;;16.43;8.33;;;;;;;;;;5109505;28;20073;-60
2024/02/03 01:49:21;;;;;;;14.80;6.67;;;;;;;;;;5114866;28;20253;-61
2024/02/03 01:51:46;;;;;;;17.40;7.60;;;;;;;;;;5114633;28;20032;-61
2024/02/03 01:54:12;;;;;;;15.55;7.07;;;;;;;;;;5114864;28;20710;-61
2024/02/03 01:56:41;;;;;;;26.13;8.27;;;;;;;;;;5113197;28;20842;-61
2024/02/03 01:59:07;;;;;;;23.87;7.80;;;;;;;;;;5114774;28;20016;-61
2024/02/03 02:01:32;;;;;;;20.80;7.13;;;;;;;;;;5111664;28;20261;-61
2024/02/03 02:03:58;;;;;;;20.83;7.30;;;;;;;;;;5115918;28;20020;-62
2024/02/03 02:06:24;;;;;;;16.58;6.93;;;;;;;;;;5115252;28;20284;-61
2024/02/03 02:08:50;;;;;;;23.00;6.23;;;;;;;;;;5113929;28;20085;-60
2024/02/03 02:11:16;;;;;;;21.40;5.87;;;;;;;;;;5115968;28;20039;-60
2024/02/03 02:13:42;;;;;;;14.70;5.83;;;;;;;;;;5118550;28;20272;-62
2024/02/03 02:16:07;;;;;;;12.00;5.87;;;;;;;;;;5111280;28;20261;-61
2024/02/03 02:18:33;;;;;;;10.10;5.22;;;;;;;;;;5116863;28;20089;-61
2024/02/03 02:20:58;;;;;;;11.57;5.83;;;;;;;;;;5116942;28;20036;-61
2024/02/03 02:23:24;;;;;;;16.77;6.15;;;;;;;;;;5108750;28;20035;-61
2024/02/03 02:25:49;;;;;;;16.85;6.32;;;;;;;;;;5123153;28;20051;-60
2024/02/03 02:28:15;;;;;;;11.65;5.13;;;;;;;;;;5117846;28;20031;-60
2024/02/03 02:30:40;;;;;;;14.25;5.13;;;;;;;;;;5109506;28;20120;-60
2024/02/03 02:33:08;;;;;;;13.40;5.30;;;;;;;;;;5115849;28;20055;-60
2024/02/03 02:35:34;;;;;;;16.73;5.90;;;;;;;;;;5117340;28;20257;-61
2024/02/03 02:38:00;;;;;;;10.27;5.32;;;;;;;;;;5107196;28;20268;-60
2024/02/03 02:40:26;;;;;;;14.10;5.97;;;;;;;;;;5115338;28;20087;-61
2024/02/03 02:42:51;;;;;;;15.27;5.68;;;;;;;;;;5116487;28;20285;-61
2024/02/03 02:45:17;;;;;;;14.07;5.40;;;;;;;;;;5119153;28;20039;-60
2024/02/03 02:47:42;;;;;;;18.63;6.00;;;;;;;;;;5117037;28;20272;-61
2024/02/03 02:50:08;;;;;;;18.30;6.68;;;;;;;;;;5117992;28;20172;-61
2024/02/03 02:52:33;;;;;;;16.67;7.82;;;;;;;;;;5111473;28;20036;-61
2024/02/03 02:54:58;;;;;;;13.73;5.77;;;;;;;;;;5116192;28;20043;-58
2024/02/03 02:57:25;;;;;;;13.07;6.32;;;;;;;;;;5123337;28;20032;-61
2024/02/03 02:59:50;;;;;;;18.58;7.15;;;;;;;;;;5119374;28;20097;-61
2024/02/03 03:02:16;;;;;;;13.53;8.23;;;;;;;;;;5116978;28;20040;-61
2024/02/03 03:04:41;;;;;;;15.47;6.53;;;;;;;;;;5120119;28;20292;-60
2024/02/03 03:07:06;;;;;;;21.38;7.00;;;;;;;;;;5117083;28;20047;-61
2024/02/03 03:09:32;;;;;;;15.27;7.10;;;;;;;;;;5114697;28;20040;-61
2024/02/03 03:11:57;;;;;;;13.23;6.70;;;;;;;;;;5116842;28;20028;-61
2024/02/03 03:14:23;;;;;;;24.43;8.53;;;;;;;;;;5116837;28;20284;-61
2024/02/03 03:16:49;;;;;;;15.40;8.23;;;;;;;;;;5116776;28;20252;-61
2024/02/03 03:19:15;;;;;;;16.95;7.78;;;;;;;;;;5119195;28;20062;-61
2024/02/03 03:21:40;;;;;;;16.93;7.70;;;;;;;;;;5116424;28;20028;-61
2024/02/03 03:24:06;;;;;;;20.65;8.23;;;;;;;;;;5116818;28;20032;-61
2024/02/03 03:26:31;;;;;;;25.97;8.77;;;;;;;;;;5116875;28;20040;-61
2024/02/03 03:28:57;;;;;;;20.03;8.83;;;;;;;;;;5119348;28;20282;-61
2024/02/03 03:31:23;;;;;;;17.73;6.82;;;;;;;;;;5123853;28;20260;-61
2024/02/03 03:33:48;;;;;;;16.27;7.77;;;;;;;;;;5116487;28;20043;-60
2024/02/03 03:36:14;;;;;;;19.37;8.30;;;;;;;;;;5110749;28;20301;-61
2024/02/03 03:38:42;;;;;;;13.35;7.20;;;;;;;;;;5116082;28;20043;-61
2024/02/03 03:41:11;;;;;;;16.27;6.70;;;;;;;;;;5123795;28;20059;-61
2024/02/03 03:43:36;;;;;;;13.33;6.80;;;;;;;;;;5116097;28;20264;-61
2024/02/03 03:46:03;;;;;;;16.15;6.72;;;;;;;;;;5116386;28;20284;-61
2024/02/03 03:48:29;;;;;;;15.33;6.43;;;;;;;;;;5098151;28;20040;-60
2024/02/03 03:50:55;;;;;;;14.27;6.57;;;;;;;;;;5120894;28;20291;-60
2024/02/03 03:53:23;;;;;;;14.27;6.32;;;;;;;;;;5115682;28;20020;-61
2024/02/03 03:55:49;;;;;;;12.67;5.57;;;;;;;;;;5116157;28;20032;-61
2024/02/03 03:58:14;;;;;;;12.00;6.77;;;;;;;;;;5116024;28;20268;-61
2024/02/03 04:00:40;;;;;;;20.10;5.67;;;;;;;;;;5117713;28;20268;-61
2024/02/03 04:03:05;;;;;;;11.37;5.80;;;;;;;;;;5115888;28;20091;-61
2024/02/03 04:05:31;;;;;;;15.68;6.55;;;;;;;;;;5121707;28;20031;-60
2024/02/03 04:07:56;;;;;;;17.63;4.88;;;;;;;;;;5115964;28;20042;-59
2024/02/03 04:10:22;;;;;;;12.77;4.93;;;;;;;;;;5129012;28;20038;-61
2024/02/03 04:12:47;;;;;;;10.17;4.77;;;;;;;;;;5115291;28;20256;-60
2024/02/03 04:15:13;;;;;;;10.93;4.10;;;;;;;;;;5115975;28;20284;-61
2024/02/03 04:17:39;;;;;;;8.50;3.77;;;;;;;;;;5122866;28;20271;-60
2024/02/03 04:20:04;;;;;;;13.77;5.73;;;;;;;;;;5121193;28;20038;-60
2024/02/03 04:22:29;;;;;;;14.43;5.35;;;;;;;;;;5127429;28;20120;-62
2024/02/03 04:24:55;;;;;;;12.85;4.50;;;;;;;;;;5116824;28;20040;-61
2024/02/03 04:27:21;;;;;;;12.13;4.40;;;;;;;;;;5115613;28;20047;-61
2024/02/03 04:29:46;;;;;;;18.83;4.73;;;;;;;;;;5120115;28;20264;-61
2024/02/03 04:32:12;;;;;;;7.97;3.90;;;;;;;;;;5115390;28;20253;-61
2024/02/03 04:34:38;;;;;;;11.18;4.82;;;;;;;;;;5115150;28;20256;-61
2024/02/03 04:37:04;;;;;;;13.50;4.75;;;;;;;;;;5115473;28;20063;-61
2024/02/03 04:39:29;;;;;;;9.77;4.15;;;;;;;;;;5116018;28;20035;-61
2024/02/03 04:41:55;;;;;;;12.70;4.53;;;;;;;;;;5115472;28;20056;-61
2024/02/03 04:44:21;;;;;;;14.63;4.00;;;;;;;;;;5115998;28;20264;-61
2024/02/03 04:46:47;;;;;;;9.37;3.83;;;;;;;;;;5115224;28;20096;-61
2024/02/03 04:49:12;;;;;;;8.60;3.90;;;;;;;;;;5114902;28;20294;-61
2024/02/03 04:51:38;;;;;;;16.07;4.63;;;;;;;;;;5125484;28;20298;-61
2024/02/03 04:54:03;;;;;;;12.38;4.18;;;;;;;;;;5114797;28;20062;-62
2024/02/03 04:56:29;;;;;;;16.27;4.75;;;;;;;;;;5116915;28;20024;-61
2024/02/03 04:58:54;;;;;;;13.25;5.13;;;;;;;;;;5115113;28;20051;-61
2024/02/03 05:01:20;;;;;;;11.83;4.77;;;;;;;;;;5122199;28;20038;-61
2024/02/03 05:03:45;;;;;;;14.67;4.83;;;;;;;;;;5122691;28;20271;-61
2024/02/03 05:06:11;;;;;;;10.53;5.00;;;;;;;;;;5121445;28;20290;-61
2024/02/03 05:08:37;;;;;;;;;;;;;;;;;;5120241;28;20073;-61
2024/02/03 05:11:03;;;;;;;25.33;6.70;;;;;;;;;;5114461;28;19908;-61
2024/02/03 05:13:28;;;;;;;15.73;4.47;;;;;;;;;;5113139;28;20036;-60
2024/02/03 05:15:54;;;;;;;15.13;5.47;;;;;;;;;;5103266;28;20255;-61
2024/02/03 05:18:19;;;;;;;10.07;4.37;;;;;;;;;;5114871;28;20339;-61
2024/02/03 05:20:45;;;;;;;8.80;4.03;;;;;;;;;;5115737;28;20032;-61
2024/02/03 05:23:11;;;;;;;8.03;3.90;;;;;;;;;;5119082;28;20024;-61
2024/02/03 05:25:36;;;;;;;10.65;4.90;;;;;;;;;;5108755;28;20028;-60
2024/02/03 05:28:02;;;;;;;10.43;4.47;;;;;;;;;;5110072;28;20052;-61
2024/02/03 05:30:27;;;;;;;8.50;4.18;;;;;;;;;;5111453;28;20631;-62
2024/02/03 05:32:53;;;;;;;9.50;4.33;;;;;;;;;;5110674;28;20091;-61
2024/02/03 05:35:18;;;;;;;12.43;4.05;;;;;;;;;;5110491;28;20123;-60
2024/02/03 05:37:44;;;;;;;13.93;4.97;;;;;;;;;;5110627;28;20066;-60
2024/02/03 05:40:10;;;;;;;14.13;3.88;;;;;;;;;;5111863;28;20032;-61
2024/02/03 05:42:35;;;;;;;10.27;3.83;;;;;;;;;;5111123;28;20040;-60
2024/02/03 05:45:00;;;;;;;10.67;4.10;;;;;;;;;;5110564;28;20083;-61
2024/02/03 05:47:26;;;;;;;11.23;3.90;;;;;;;;;;5110643;28;22299;-61
2024/02/03 05:49:52;;;;;;;14.15;4.95;;;;;;;;;;5113608;28;20028;-61
2024/02/03 05:52:18;;;;;;;15.80;3.58;;;;;;;;;;5122580;28;20058;-61
2024/02/03 05:54:43;;;;;;;11.77;3.80;;;;;;;;;;5121108;28;20103;-61
2024/02/03 05:57:14;;;;;;;22.57;4.90;;;;;;;;;;5113526;28;20275;-61
2024/02/03 05:59:44;;;;;;;14.30;3.87;;;;;;;;;;5114061;28;20310;-61
2024/02/03 06:02:09;;;;;;;13.63;3.33;;;;;;;;;;5121025;28;20265;-60
2024/02/03 06:04:35;;;;;;;18.38;3.35;;;;;;;;;;5114112;28;20263;-61
2024/02/03 06:07:01;;;;;;;13.73;3.53;;;;;;;;;;5114371;28;20036;-61
2024/02/03 06:09:26;;;;;;;18.23;3.30;;;;;;;;;;5112895;28;20847;-61
2024/02/03 06:11:52;;;;;;;18.17;4.35;;;;;;;;;;5114014;28;20028;-61
2024/02/03 06:14:17;;;;;;;17.65;5.35;;;;;;;;;;5115088;28;20028;-61
2024/02/03 06:16:43;;;;;;;24.17;5.40;;;;;;;;;;5116535;28;20024;-61
2024/02/03 06:19:08;;;;;;;14.10;4.90;;;;;;;;;;5118097;28;20032;-61
2024/02/03 06:21:34;;;;;;;18.00;4.60;;;;;;;;;;5122781;28;20043;-60
2024/02/03 06:23:59;;;;;;;20.00;6.30;;;;;;;;;;5113143;28;20074;-61
2024/02/03 06:26:30;;;;;;;17.20;5.20;;;;;;;;;;5114146;28;20087;-60
2024/02/03 06:28:56;;;;;;;15.13;5.07;;;;;;;;;;5114524;28;20055;-60
2024/02/03 06:31:22;;;;;;;17.83;4.20;;;;;;;;;;5115256;28;20252;-62
2024/02/03 06:33:47;;;;;;;17.17;4.50;;;;;;;;;;5113853;28;20136;-62
2024/02/03 06:36:12;;;;;;;9.17;3.33;;;;;;;;;;5115154;28;20300;-60
2024/02/03 06:38:38;;;;;;;10.13;3.50;;;;;;;;;;5114405;28;20028;-61
2024/02/03 06:41:04;;;;;;;17.63;4.57;;;;;;;;;;5115086;28;20063;-62
2024/02/03 06:43:29;;;;;;;12.83;3.80;;;;;;;;;;5112953;28;20272;-61
2024/02/03 06:45:54;;;;;;;15.70;4.43;;;;;;;;;;5113929;28;20042;-61
2024/02/03 06:48:20;;;;;;;28.02;7.07;;;;;;;;;;5115150;28;20567;-61
2024/02/03 06:50:48;;;;;;;21.10;5.13;;;;;;;;;;5119094;28;20050;-61
2024/02/03 06:53:15;;;;;;;13.07;3.73;;;;;;;;;;5119059;28;20019;-61
2024/02/03 06:55:40;;;;;;;16.00;3.90;;;;;;;;;;5115771;28;20257;-61
2024/02/03 06:58:06;;;;;;;14.17;4.57;;;;;;;;;;5117078;28;20260;-61
2024/02/03 07:00:31;;;;;;;23.40;4.70;;;;;;;;;;5117364;28;20359;-62
2024/02/03 07:02:57;;;;;;;20.50;5.60;;;;;;;;;;5120069;28;20295;-61
2024/02/03 07:05:22;;;;;;;13.85;4.10;;;;;;;;;;5116883;28;20036;-61
2024/02/03 07:07:48;;;;;;;19.95;4.65;;;;;;;;;;5116917;28;20056;-61
2024/02/03 07:10:13;;;;;;;21.40;5.03;;;;;;;;;;5117185;28;20035;-62
2024/02/03 07:12:39;;;;;;;20.83;5.35;;;;;;;;;;5114301;28;20035;-60
2024/02/03 07:15:05;;;;;;;23.07;6.40;;;;;;;;;;5116161;28;20039;-61
2024/02/03 07:17:31;;;;;;;;;;;;;;;;;;5116181;28;20028;-60
2024/02/03 07:19:56;;;;;;;14.50;5.00;;;;;;;;;;5116821;28;19912;-61
2024/02/03 07:22:22;;;;;;;18.67;4.77;;;;;;;;;;5116672;28;20054;-61
2024/02/03 07:24:47;;;;;;;27.53;5.53;;;;;;;;;;5114686;28;20688;-61
2024/02/03 07:27:13;;;;;;;30.83;8.43;;;;;;;;;;5111346;28;20307;-61
2024/02/03 07:29:38;;;;;;;23.25;6.40;;;;;;;;;;5116699;28;20023;-61
2024/02/03 07:32:04;;;;;;;13.05;5.68;;;;;;;;;;5113029;28;20036;-60
2024/02/03 07:34:29;;;;;;;19.65;6.72;;;;;;;;;;5113149;28;20043;-62
2024/02/03 07:36:55;;;;;;;31.33;9.17;;;;;;;;;;5111533;28;20152;-61
2024/02/03 07:39:20;;;;;;;31.38;8.68;;;;;;;;;;5112749;28;20044;-61
2024/02/03 07:41:46;;;;;;;16.10;7.07;;;;;;;;;;5112739;28;20040;-61
2024/02/03 07:44:12;;;;;;;18.90;7.60;;;;;;;;;;5112908;28;20307;-60
2024/02/03 07:46:38;;;;;;;24.70;9.60;;;;;;;;;;5112940;28;20032;-62
2024/02/03 07:49:04;;;;;;;27.55;8.60;;;;;;;;;;5112830;28;20050;-61
2024/02/03 07:51:30;;;;;;;23.40;7.97;;;;;;;;;;5117788;28;20024;-61
2024/02/03 07:53:56;;;;;;;31.73;10.53;;;;;;;;;;5121073;28;20268;-61
2024/02/03 07:56:21;;;;;;;26.80;8.70;;;;;;;;;;5116443;28;20260;-61
2024/02/03 07:58:47;;;;;;;24.17;8.63;;;;;;;;;;5116125;28;20095;-60
2024/02/03 08:01:12;;;;;;;30.00;9.07;;;;;;;;;;5118778;28;20031;-61
2024/02/03 08:03:38;;;;;;;25.48;7.97;;;;;;;;;;5124010;28;20032;-60
2024/02/03 08:06:04;;;;;;;20.80;6.30;;;;;;;;;;5106223;28;20043;-63
2024/02/03 08:08:29;;;;;;;30.05;8.50;;;;;;;;;;5116006;28;20092;-61
2024/02/03 08:10:55;;;;;;;34.08;8.40;;;;;;;;;;5107517;28;20035;-62
2024/02/03 08:13:20;;;;;;;26.73;9.48;;;;;;;;;;5124873;28;20028;-60
2024/02/03 08:15:46;;;;;;;33.97;9.18;;;;;;;;;;5102316;28;20044;-61
2024/02/03 08:18:11;;;;;;;23.67;8.47;;;;;;;;;;5115714;28;20040;-61
2024/02/03 08:20:37;;;;;;;27.63;8.75;;;;;;;;;;5115576;28;20505;-61
2024/02/03 08:23:02;;;;;;;37.27;11.03;;;;;;;;;;5115795;28;20040;-61
2024/02/03 08:25:29;;;;;;;26.80;8.70;;;;;;;;;;5108556;28;20276;-62
2024/02/03 08:27:54;;;;;;;26.77;9.57;;;;;;;;;;5111249;28;20280;-62
2024/02/03 08:30:20;;;;;;;31.43;8.93;;;;;;;;;;5111892;28;20044;-61
2024/02/03 08:32:45;;;;;;;28.37;7.40;;;;;;;;;;5113836;28;20311;-61
2024/02/03 08:35:10;;;;;;;20.03;8.33;;;;;;;;;;5111814;28;20039;-61
2024/02/03 08:37:35;;;;;;;32.63;9.90;;;;;;;;;;5111906;28;20028;-60
2024/02/03 08:40:01;;;;;;;27.93;9.33;;;;;;;;;;5112579;28;20035;-62
2024/02/03 08:42:26;;;;;;;35.63;8.82;;;;;;;;;;5113262;28;20553;-61
2024/02/03 08:44:52;;;;;;;26.83;8.52;;;;;;;;;;5111452;28;20052;-61
2024/02/03 08:47:18;;;;;;;26.48;9.55;;;;;;;;;;5111106;28;20036;-60
2024/02/03 08:49:51;;;;;;;29.48;7.47;;;;;;;;;;5113161;28;20020;-61
2024/02/03 08:52:16;;;;;;;39.57;10.10;;;;;;;;;;5127522;28;20159;-61
2024/02/03 08:54:42;;;;;;;23.93;7.33;;;;;;;;;;5116236;28;20268;-61
2024/02/03 08:57:07;;;;;;;32.07;8.13;;;;;;;;;;5113689;28;20256;-61
2024/02/03 08:59:33;;;;;;;22.90;7.80;;;;;;;;;;5113650;28;20321;-61
2024/02/03 09:01:58;;;;;;;20.13;7.13;;;;;;;;;;5122474;28;20274;-61
2024/02/03 09:04:24;;;;;;;26.15;6.50;;;;;;;;;;5117102;28;20036;-61
2024/02/03 09:06:50;;;;;;;26.20;7.68;;;;;;;;;;5118505;28;20040;-61
2024/02/03 09:09:15;;;;;;;19.35;6.53;;;;;;;;;;5114743;28;20026;-61
2024/02/03 09:11:40;;;;;;;25.53;5.93;;;;;;;;;;5124713;28;20095;-61
2024/02/03 09:14:06;;;;;;;18.98;5.35;;;;;;;;;;5103991;28;20031;-61
2024/02/03 09:16:32;;;;;;;18.42;5.28;;;;;;;;;;5113178;28;20087;-61
2024/02/03 09:18:57;;;;;;;22.23;5.97;;;;;;;;;;5114533;28;20045;-60
2024/02/03 09:21:23;;;;;;;17.45;4.95;;;;;;;;;;5115187;28;20047;-61
2024/02/03 09:23:48;;;;;;;17.35;5.05;;;;;;;;;;5113277;28;20051;-61
2024/02/03 09:26:13;;;;;;;19.90;5.57;;;;;;;;;;5110634;28;20028;-61
2024/02/03 09:28:39;;;;;;;19.55;5.22;;;;;;;;;;5110298;28;20028;-61
2024/02/03 09:31:05;;;;;;;22.33;6.47;;;;;;;;;;5114328;28;20032;-60
2024/02/03 09:33:31;;;;;;;21.37;5.03;;;;;;;;;;5111888;28;20049;-61
2024/02/03 09:35:56;;;;;;;24.73;6.07;;;;;;;;;;5113732;28;20032;-61
2024/02/03 09:38:22;;;;;;;19.38;5.68;;;;;;;;;;5126673;28;20024;-61
2024/02/03 09:40:47;;;;;;;12.95;4.85;;;;;;;;;;5110759;28;20117;-61
2024/02/03 09:43:13;;;;;;;17.37;4.30;;;;;;;;;;5110323;28;20032;-61
2024/02/03 09:45:39;;;;;;;;;;;;;;;;;;5110484;28;20045;-61
2024/02/03 09:48:05;;;;;;;22.27;4.80;;;;;;;;;;5110750;28;19912;-61
2024/02/03 09:50:30;;;;;;;15.33;4.10;;;;;;;;;;5119309;28;20081;-61
2024/02/03 09:52:57;;;;;;;19.63;4.33;;;;;;;;;;5123896;28;20248;-61
2024/02/03 09:55:23;;;;;;;19.77;4.40;;;;;;;;;;5119958;28;20263;-61
2024/02/03 09:57:48;;;;;;;15.30;4.43;;;;;;;;;;5112369;28;20263;-61
2024/02/03 10:00:16;;;;;;;16.10;5.40;;;;;;;;;;5118266;28;20268;-60
2024/02/03 10:02:42;;;;;;;28.30;4.50;;;;;;;;;;5122833;28;20264;-61
2024/02/03 10:05:08;;;;;;;20.53;4.90;;;;;;;;;;5110437;28;20296;-61
2024/02/03 10:07:33;;;;;;;15.48;4.80;;;;;;;;;;5109681;28;20287;-61
2024/02/03 10:10:05;;;;;;;14.20;3.90;;;;;;;;;;5106219;28;20033;-61
2024/02/03 10:12:32;;;;;;;12.17;4.43;;;;;;;;;;5116949;28;20016;-61
2024/02/03 10:15:07;;;;;;;18.52;3.60;;;;;;;;;;5112849;28;20264;-60
2024/02/03 10:17:33;;;;;;;18.40;4.13;;;;;;;;;;5120624;28;20032;-61
2024/02/03 10:19:58;;;;;;;12.52;3.00;;;;;;;;;;5109537;28;20272;-61
2024/02/03 10:22:25;;;;;;;14.50;3.30;;;;;;;;;;5119581;28;20037;-61
2024/02/03 10:24:50;;;;;;;15.30;3.50;;;;;;;;;;5104216;28;20104;-61
2024/02/03 10:27:20;;;;;;;11.15;3.58;;;;;;;;;;5116439;28;20055;-61
2024/02/03 10:29:51;;;;;;;11.73;3.27;;;;;;;;;;5115680;28;20028;-61
2024/02/03 10:32:17;;;;;;;16.77;4.20;;;;;;;;;;5113841;28;20255;-62
2024/02/03 10:34:43;;;;;;;22.90;5.77;;;;;;;;;;5112731;28;20294;-62
2024/02/03 10:37:08;;;;;;;18.85;5.80;;;;;;;;;;5113442;28;20092;-61
2024/02/03 10:39:33;;;;;;;22.30;6.47;;;;;;;;;;5112303;28;20054;-61
2024/02/03 10:41:59;;;;;;;20.40;6.57;;;;;;;;;;5112657;28;20518;-62
2024/02/03 10:44:27;;;;;;;15.90;3.83;;;;;;;;;;5113872;28;20028;-61
2024/02/03 10:46:55;;;;;;;14.17;3.77;;;;;;;;;;5113062;28;20276;-61
2024/02/03 10:49:26;;;;;;;17.27;4.43;;;;;;;;;;5114257;28;20275;-62
2024/02/03 10:51:53;;;;;;;19.50;5.87;;;;;;;;;;5116135;28;20245;-60
2024/02/03 10:54:20;;;;;;;9.20;3.45;;;;;;;;;;5105622;28;20249;-62
2024/02/03 10:56:48;;;;;;;21.77;6.17;;;;;;;;;;5114274;28;20054;-61
2024/02/03 10:59:20;;;;;;;22.03;4.73;;;;;;;;;;5125270;28;20272;-61
2024/02/03 11:01:46;;;;;;;23.90;4.30;;;;;;;;;;5117235;28;20324;-61
2024/02/03 11:04:12;;;;;;;12.20;3.05;;;;;;;;;;5115841;28;20268;-61
2024/02/03 11:06:38;;;;;;;18.27;4.68;;;;;;;;;;5120282;28;20032;-61
2024/02/03 11:09:20;;;;;;;13.52;4.18;;;;;;;;;;5115967;28;20020;-63
2024/02/03 11:11:47;;;;;;;17.60;4.00;;;;;;;;;;5114868;28;20028;-61
2024/02/03 11:14:12;;;;;;;;;;;;;;;;;;5111265;28;20257;-61
2024/02/03 11:16:38;;;;;;;19.73;4.73;;;;;;;;;;5117486;28;19912;-61
2024/02/03 11:19:07;;;;;;;23.30;5.93;;;;;;;;;;5113543;28;20047;-61
2024/02/03 11:21:32;;;;;;;24.63;7.50;;;;;;;;;;5117311;28;20028;-61
2024/02/03 11:23:57;;;;;;;21.27;5.63;;;;;;;;;;5113824;28;20272;-61
2024/02/03 11:26:23;;;;;;;24.30;7.57;;;;;;;;;;5115849;28;20059;-61
2024/02/03 11:28:48;;;;;;;30.77;9.67;;;;;;;;;;5119731;28;20023;-62
2024/02/03 11:31:16;;;;;;;21.90;6.45;;;;;;;;;;5125041;28;20029;-61
2024/02/03 11:33:48;;;;;;;30.03;7.67;;;;;;;;;;5117247;28;20031;-61
2024/02/03 11:36:13;;;;;;;23.57;6.43;;;;;;;;;;5116381;28;20290;-61
2024/02/03 11:38:45;;;;;;;18.47;5.20;;;;;;;;;;5112513;28;20336;-61
2024/02/03 11:41:11;;;;;;;14.77;4.50;;;;;;;;;;5116447;28;20261;-60
2024/02/03 11:43:37;;;;;;;14.02;5.07;;;;;;;;;;5121042;28;20358;-61
2024/02/03 11:46:04;;;;;;;13.82;4.68;;;;;;;;;;5115887;28;20100;-61
2024/02/03 11:48:29;;;;;;;12.63;3.83;;;;;;;;;;5122338;28;20023;-60
2024/02/03 11:50:55;;;;;;;14.10;4.10;;;;;;;;;;5115781;28;20328;-62
2024/02/03 11:53:24;;;;;;;17.02;4.55;;;;;;;;;;5114149;28;20061;-62
2024/02/03 11:55:50;;;;;;;16.23;5.10;;;;;;;;;;5115614;28;20025;-62
2024/02/03 11:58:16;;;;;;;13.30;4.63;;;;;;;;;;5116145;28;20253;-61
2024/02/03 12:00:42;;;;;;;17.75;4.85;;;;;;;;;;5118967;28;20042;-61
2024/02/03 12:03:07;;;;;;;13.35;4.90;;;;;;;;;;5117259;28;20028;-61
2024/02/03 12:05:36;;;;;;;15.55;4.47;;;;;;;;;;5115015;28;20035;-61
2024/02/03 12:08:02;;;;;;;25.30;4.83;;;;;;;;;;5105844;28;20036;-61
2024/02/03 12:10:29;;;;;;;16.30;5.43;;;;;;;;;;5112865;28;20269;-62
2024/02/03 12:13:01;;;;;;;15.23;4.20;;;;;;;;;;5118631;28;20028;-61
2024/02/03 12:15:26;;;;;;;18.03;6.43;;;;;;;;;;5117583;28;20347;-62
2024/02/03 12:17:52;;;;;;;9.18;3.90;;;;;;;;;;5103538;28;20261;-61
2024/02/03 12:20:22;;;;;;;13.10;4.33;;;;;;;;;;5108796;28;20047;-61
2024/02/03 12:22:48;;;;;;;14.83;4.47;;;;;;;;;;5107717;28;20276;-62
2024/02/03 12:25:14;;;;;;;18.13;4.18;;;;;;;;;;5113671;28;20271;-62
2024/02/03 12:27:40;;;;;;;14.07;4.35;;;;;;;;;;5103926;28;20036;-62
2024/02/03 12:30:14;;;;;;;14.80;4.73;;;;;;;;;;5115008;28;20031;-61
2024/02/03 12:32:39;;;;;;;13.60;4.30;;;;;;;;;;5112360;28;20028;-61
2024/02/03 12:35:05;;;;;;;19.03;4.40;;;;;;;;;;5114674;28;20299;-61
2024/02/03 12:37:30;;;;;;;25.65;5.82;;;;;;;;;;5106031;28;20032;-61
2024/02/03 12:39:56;;;;;;;25.87;6.43;;;;;;;;;;5108717;28;20036;-61
2024/02/03 12:42:21;;;;;;;13.60;6.03;;;;;;;;;;5107444;28;20279;-61
2024/02/03 12:44:47;;;;;;;10.90;4.13;;;;;;;;;;5113184;28;20261;-61
2024/02/03 12:47:13;;;;;;;23.85;5.25;;;;;;;;;;5107749;28;20437;-62
2024/02/03 12:49:38;;;;;;;20.15;5.10;;;;;;;;;;5104707;28;20036;-62
2024/02/03 12:52:04;;;;;;;11.10;4.77;;;;;;;;;;5108113;28;20032;-62
2024/02/03 12:54:30;;;;;;;;;;;;;;;;;;5119530;28;20039;-61
2024/02/03 12:56:55;;;;;;;8.10;4.07;;;;;;;;;;5109321;28;19908;-61
2024/02/03 12:59:20;;;;;;;13.10;4.80;;;;;;;;;;5109003;28;20046;-61
2024/02/03 13:01:45;;;;;;;9.40;3.97;;;;;;;;;;5111364;28;20028;-62
2024/02/03 13:04:12;;;;;;;13.50;3.73;;;;;;;;;;5110388;28;20046;-61
2024/02/03 13:06:37;;;;;;;9.82;4.03;;;;;;;;;;5106347;28;20036;-61
2024/02/03 13:09:03;;;;;;;9.60;3.33;;;;;;;;;;5104935;28;20036;-61
2024/02/03 13:11:28;;;;;;;8.30;3.57;;;;;;;;;;5101530;28;20035;-61
2024/02/03 13:13:53;;;;;;;8.03;3.80;;;;;;;;;;5119122;28;20268;-61
2024/02/03 13:16:19;;;;;;;13.30;4.60;;;;;;;;;;5110556;28;20307;-61
2024/02/03 13:18:44;;;;;;;12.93;4.67;;;;;;;;;;5103360;28;20020;-61
2024/02/03 13:21:10;;;;;;;11.18;3.90;;;;;;;;;;5111080;28;20063;-60
2024/02/03 13:23:35;;;;;;;13.70;5.63;;;;;;;;;;5113773;28;20063;-62
2024/02/03 13:26:01;;;;;;;18.03;6.57;;;;;;;;;;5107797;28;20284;-62
2024/02/03 13:28:26;;;;;;;26.20;6.75;;;;;;;;;;5107058;28;20092;-61
2024/02/03 13:30:52;;;;;;;21.47;8.03;;;;;;;;;;5112742;28;20028;-61
2024/02/03 13:33:17;;;;;;;21.40;6.85;;;;;;;;;;5109641;28;20032;-62
2024/02/03 13:35:43;;;;;;;21.63;6.43;;;;;;;;;;5100568;28;20033;-61
2024/02/03 13:38:09;;;;;;;30.73;8.53;;;;;;;;;;5108583;28;20284;-61
2024/02/03 13:40:34;;;;;;;18.08;7.90;;;;;;;;;;5114176;28;20091;-61
2024/02/03 13:43:00;;;;;;;25.30;6.43;;;;;;;;;;5114263;28;20052;-62
2024/02/03 13:45:26;;;;;;;32.50;8.57;;;;;;;;;;5111338;28;20091;-61
2024/02/03 13:47:52;;;;;;;18.53;7.00;;;;;;;;;;5113755;28;20276;-61
2024/02/03 13:50:18;;;;;;;10.30;4.60;;;;;;;;;;5110088;28;20269;-61
2024/02/03 13:52:44;;;;;;;16.47;5.37;;;;;;;;;;5100484;28;20032;-61
2024/02/03 13:55:10;;;;;;;18.70;6.18;;;;;;;;;;5118181;28;20273;-61
2024/02/03 13:57:35;;;;;;;18.45;6.55;;;;;;;;;;5113359;28;20032;-62
2024/02/03 14:00:00;;;;;;;25.73;6.67;;;;;;;;;;5106778;28;20028;-62
2024/02/03 14:02:25;;;;;;;19.87;7.47;;;;;;;;;;5109354;28;20033;-61
2024/02/03 14:04:51;;;;;;;27.30;8.68;;;;;;;;;;5118556;28;20032;-62
2024/02/03 14:07:16;;;;;;;37.63;11.00;;;;;;;;;;5113833;28;20047;-61
2024/02/03 14:09:42;;;;;;;30.08;11.38;;;;;;;;;;5114211;28;20071;-61
2024/02/03 14:12:08;;;;;;;38.97;11.27;;;;;;;;;;5113073;28;20044;-62
2024/02/03 14:14:33;;;;;;;26.87;7.97;;;;;;;;;;5113556;28;20277;-62
2024/02/03 14:16:58;;;;;;;27.93;9.43;;;;;;;;;;5113315;28;20040;-61
2024/02/03 14:19:23;;;;;;;35.50;12.80;;;;;;;;;;5114223;28;20032;-62
2024/02/03 14:21:51;;;;;;;33.77;8.90;;;;;;;;;;5113557;28;20040;-61